createdAt,value
2022-11-16T00:00:23.514Z,26.50
2022-11-16T00:02:52.197Z,22.02
2022-11-16T00:05:28.001Z,23.52
2022-11-16T00:07:57.879Z,25.83
2022-11-16T00:10:26.002Z,24.38
2022-11-16T00:12:54.124Z,26.35
2022-11-16T00:15:24.010Z,23.13
2022-11-16T00:17:52.479Z,22.02
2022-11-16T00:20:20.790Z,27.00
2022-11-16T00:22:49.963Z,32.85
2022-11-16T00:25:22.744Z,33.30
2022-11-16T00:28:02.123Z,42.00
2022-11-16T00:30:30.281Z,38.08
2022-11-16T00:33:06.936Z,40.63
2022-11-16T00:35:40.083Z,33.55
2022-11-16T00:38:08.748Z,31.00
2022-11-16T00:40:40.248Z,32.85
2022-11-16T00:43:08.640Z,31.13
2022-11-16T00:45:39.925Z,29.95
2022-11-16T00:48:08.111Z,31.35
2022-11-16T00:50:36.786Z,30.40
2022-11-16T00:53:06.957Z,29.77
2022-11-16T00:55:35.015Z,31.98
2022-11-16T00:58:04.333Z,25.50
2022-11-16T01:00:32.239Z,29.48
2022-11-16T01:03:02.658Z,23.98
2022-11-16T01:05:31.046Z,26.60
2022-11-16T01:07:59.189Z,25.17
2022-11-16T01:10:34.373Z,24.92
2022-11-16T01:13:06.982Z,26.83
2022-11-16T01:18:03.213Z,30.20
2022-11-16T01:20:32.062Z,27.17
2022-11-16T01:23:00.193Z,27.63
2022-11-16T01:25:29.610Z,31.35
2022-11-16T01:27:57.890Z,35.08
2022-11-16T01:30:48.704Z,29.13
2022-11-16T01:33:16.822Z,34.67
2022-11-16T01:35:45.142Z,28.02
2022-11-16T01:38:15.622Z,29.30
2022-11-16T01:40:44.093Z,27.10
2022-11-16T01:43:20.682Z,24.38
2022-11-16T01:45:49.048Z,24.98
2022-11-16T01:48:24.943Z,24.15
2022-11-16T01:50:54.140Z,20.85
2022-11-16T01:53:22.502Z,27.25
2022-11-16T01:55:57.151Z,19.90
2022-11-16T01:58:30.921Z,23.15
2022-11-16T02:01:07.465Z,21.65
2022-11-16T02:03:45.385Z,17.35
2022-11-16T02:06:17.011Z,23.42
2022-11-16T02:09:34.877Z,21.13
2022-11-16T02:13:35.383Z,18.58
2022-11-16T02:16:52.643Z,21.67
2022-11-16T02:19:51.821Z,21.00
2022-11-16T02:22:27.796Z,17.67
2022-11-16T02:25:05.352Z,21.73
2022-11-16T02:27:52.780Z,23.50
2022-11-16T02:30:20.815Z,25.85
2022-11-16T02:32:59.224Z,20.88
2022-11-16T02:35:33.397Z,20.38
2022-11-16T02:38:09.951Z,24.33
2022-11-16T02:40:45.625Z,19.60
2022-11-16T02:43:32.648Z,18.05
2022-11-16T02:46:05.505Z,20.75
2022-11-16T02:48:39.384Z,19.77
2022-11-16T02:51:08.672Z,20.23
2022-11-16T02:53:42.742Z,18.90
2022-11-16T02:56:13.933Z,21.88
2022-11-16T02:58:42.804Z,19.27
2022-11-16T03:01:21.783Z,21.92
2022-11-16T03:03:53.048Z,21.63
2022-11-16T03:06:30.112Z,21.38
2022-11-16T03:09:15.362Z,20.15
2022-11-16T03:12:03.690Z,18.17
2022-11-16T03:14:47.248Z,22.20
2022-11-16T03:17:22.890Z,22.27
2022-11-16T03:20:02.515Z,22.02
2022-11-16T03:22:42.472Z,18.20
2022-11-16T03:25:14.632Z,20.92
2022-11-16T03:28:05.848Z,19.27
2022-11-16T03:30:47.903Z,24.83
2022-11-16T03:33:20.768Z,22.15
2022-11-16T03:38:35.916Z,23.35
2022-11-16T03:41:07.442Z,22.15
2022-11-16T03:43:36.360Z,20.27
2022-11-16T03:46:05.989Z,27.13
2022-11-16T03:48:36.082Z,27.30
2022-11-16T03:51:13.673Z,29.23
2022-11-16T03:53:52.780Z,25.13
2022-11-16T03:56:21.192Z,32.92
2022-11-16T03:59:17.933Z,24.13
2022-11-16T04:01:46.780Z,26.67
2022-11-16T04:04:36.321Z,22.38
2022-11-16T04:10:13.404Z,23.23
2022-11-16T04:13:02.263Z,28.23
2022-11-16T04:15:48.765Z,34.88
2022-11-16T04:18:35.460Z,26.15
2022-11-16T04:21:24.186Z,30.05
2022-11-16T04:24:10.204Z,34.72
2022-11-16T04:26:57.436Z,34.53
2022-11-16T04:29:25.657Z,36.45
2022-11-16T04:32:12.214Z,32.90
2022-11-16T04:34:58.668Z,24.00
2022-11-16T04:37:45.623Z,24.08
2022-11-16T04:40:16.695Z,24.75
2022-11-16T04:43:00.361Z,22.95
2022-11-16T04:45:51.266Z,24.30
2022-11-16T04:48:21.688Z,24.38
2022-11-16T04:50:53.511Z,27.90
2022-11-16T04:53:25.148Z,28.60
2022-11-16T04:56:01.196Z,25.92
2022-11-16T04:58:31.463Z,27.80
2022-11-16T05:01:00.392Z,23.00
2022-11-16T05:03:32.659Z,21.63
2022-11-16T05:06:04.089Z,26.10
2022-11-16T05:08:33.339Z,27.30
2022-11-16T05:11:01.987Z,20.88
2022-11-16T05:13:30.653Z,23.77
2022-11-16T05:16:01.677Z,25.58
2022-11-16T09:14:59.345Z,51.40
2022-11-16T09:17:28.007Z,50.65
2022-11-16T09:19:57.064Z,46.40
2022-11-16T09:22:25.997Z,49.67
2022-11-16T09:24:58.278Z,45.78
2022-11-16T09:27:30.755Z,47.70
2022-11-16T09:30:02.329Z,40.47
2022-11-16T09:32:30.527Z,46.17
2022-11-16T09:35:02.118Z,42.00
2022-11-16T09:37:43.394Z,54.38
2022-11-16T09:40:14.514Z,46.47
2022-11-16T09:43:07.157Z,50.10
2022-11-16T09:45:38.421Z,51.13
2022-11-16T09:48:17.854Z,54.97
2022-11-16T09:51:25.308Z,50.90
2022-11-16T09:54:08.394Z,54.42
2022-11-16T09:56:48.025Z,57.22
2022-11-16T09:59:26.651Z,53.78
2022-11-16T10:02:21.484Z,57.45
2022-11-16T10:05:12.892Z,55.70
2022-11-16T10:07:50.859Z,57.83
2022-11-16T10:10:45.397Z,59.22
2022-11-16T10:13:43.656Z,51.95
2022-11-16T10:16:46.859Z,53.97
2022-11-16T10:21:16.762Z,63.85
2022-11-16T10:24:32.477Z,59.53
2022-11-16T10:28:12.084Z,66.85
2022-11-16T10:31:42.565Z,65.65
2022-11-16T10:38:34.611Z,69.53
2022-11-16T10:41:39.362Z,52.58
2022-11-16T10:44:44.520Z,53.00
2022-11-16T10:47:23.414Z,50.90
2022-11-16T10:50:05.387Z,61.85
2022-11-16T10:54:00.950Z,52.05
2022-11-16T10:57:00.980Z,69.15
2022-11-16T10:59:48.707Z,58.58
2022-11-16T11:02:38.014Z,53.38
2022-11-16T11:05:25.967Z,53.30
2022-11-16T11:08:12.532Z,65.82
2022-11-16T11:10:56.678Z,98.18
2022-11-16T11:13:30.153Z,107.68
2022-11-16T11:16:17.914Z,124.32
2022-11-16T11:18:57.521Z,70.15
2022-11-16T11:21:26.099Z,74.03
2022-11-16T11:24:10.596Z,104.60
2022-11-16T11:26:51.314Z,71.80
2022-11-16T11:29:27.800Z,81.65
2022-11-16T11:32:06.020Z,67.78
2022-11-16T11:34:40.328Z,64.05
2022-11-16T11:37:21.129Z,68.90
2022-11-16T11:40:04.837Z,68.82
2022-11-16T11:42:34.011Z,59.35
2022-11-16T11:45:13.693Z,64.10
2022-11-16T11:48:15.312Z,147.02
2022-11-16T11:51:17.071Z,66.78
2022-11-16T11:53:58.638Z,66.97
2022-11-16T11:56:39.011Z,58.05
2022-11-16T11:59:14.072Z,53.75
2022-11-16T12:02:19.639Z,65.85
2022-11-16T12:05:15.835Z,69.10
2022-11-16T12:07:52.563Z,66.25
2022-11-16T12:10:28.147Z,69.90
2022-11-16T12:13:27.660Z,71.82
2022-11-16T12:16:18.105Z,72.93
2022-11-16T12:19:13.155Z,65.05
2022-11-16T12:22:06.150Z,68.47
2022-11-16T12:24:46.068Z,62.45
2022-11-16T12:27:50.541Z,62.78
2022-11-16T12:30:26.569Z,66.60
2022-11-16T12:33:13.742Z,61.42
2022-11-16T12:35:55.001Z,64.00
2022-11-16T12:38:42.168Z,71.57
2022-11-16T12:41:35.759Z,82.57
2022-11-16T12:44:12.094Z,74.95
2022-11-16T12:47:13.195Z,71.80
2022-11-16T12:50:35.439Z,71.18
2022-11-16T12:55:59.210Z,66.60
2022-11-16T12:58:53.057Z,74.82
2022-11-16T13:01:30.993Z,76.97
2022-11-16T13:04:06.615Z,75.47
2022-11-16T13:06:41.632Z,76.75
2022-11-16T13:09:16.697Z,74.22
2022-11-16T13:11:56.274Z,74.25
2022-11-16T13:16:58.712Z,75.53
2022-11-16T13:19:32.496Z,81.60
2022-11-16T13:22:08.003Z,66.93
2022-11-16T13:24:59.057Z,65.75
2022-11-16T13:27:39.865Z,75.75
2022-11-16T13:30:23.936Z,73.05
2022-11-16T13:33:14.612Z,75.22
2022-11-16T13:35:43.164Z,70.73
2022-11-16T13:38:14.690Z,76.20
2022-11-16T13:40:46.046Z,75.10
2022-11-16T13:43:17.794Z,71.63
2022-11-16T13:46:00.059Z,75.22
2022-11-16T13:48:38.429Z,80.65
2022-11-16T13:51:11.155Z,70.72
2022-11-16T13:56:49.228Z,78.20
2022-11-16T13:59:17.488Z,82.57
2022-11-16T14:01:59.604Z,83.30
2022-11-16T14:04:42.275Z,102.30
2022-11-16T14:07:37.302Z,103.40
2022-11-16T14:10:06.231Z,113.57
2022-11-16T17:00:50.527Z,104.50
2022-11-16T17:03:20.812Z,140.00
2022-11-16T17:05:49.247Z,144.75
2022-11-16T17:08:17.096Z,141.43
2022-11-16T17:10:45.242Z,121.72
2022-11-16T17:13:13.353Z,140.75
2022-11-16T17:22:56.473Z,113.38
2022-11-16T17:25:28.307Z,108.80
2022-11-16T17:27:56.377Z,89.55
2022-11-16T17:30:24.017Z,77.18
2022-11-16T17:32:51.871Z,83.80
2022-11-16T17:35:19.656Z,68.00
2022-11-16T17:37:48.812Z,62.63
2022-11-16T17:40:17.912Z,65.78
2022-11-16T17:42:46.301Z,125.07
2022-11-16T17:45:14.089Z,51.92
2022-11-16T17:47:42.100Z,51.25
2022-11-16T17:50:10.256Z,56.95
2022-11-16T17:52:41.076Z,51.28
2022-11-16T17:55:09.309Z,62.00
2022-11-16T17:57:36.968Z,64.15
2022-11-16T18:00:05.232Z,61.95
2022-11-16T18:02:36.093Z,49.15
2022-11-16T18:05:03.915Z,57.95
2022-11-16T18:07:33.703Z,72.40
2022-11-16T18:10:01.671Z,44.75
2022-11-16T18:12:29.593Z,55.45
2022-11-16T18:15:26.471Z,55.42
2022-11-16T18:17:46.734Z,44.05
2022-11-16T18:20:14.567Z,47.85
2022-11-16T18:22:42.347Z,43.67
2022-11-16T18:25:10.013Z,41.53
2022-11-16T18:27:38.073Z,56.90
2022-11-16T18:30:07.673Z,41.65
2022-11-16T18:32:37.218Z,50.42
2022-11-16T18:35:10.126Z,50.47
2022-11-16T18:37:39.255Z,47.58
2022-11-16T18:40:08.392Z,51.17
2022-11-16T18:42:36.942Z,50.85
2022-11-16T18:45:05.085Z,50.55
2022-11-16T18:47:35.333Z,46.53
2022-11-16T18:50:03.146Z,53.83
2022-11-16T18:52:31.289Z,50.13
2022-11-16T18:54:59.062Z,46.75
2022-11-16T18:57:27.447Z,39.88
2022-11-16T18:59:55.210Z,46.60
2022-11-16T19:02:23.264Z,52.28
2022-11-16T19:04:51.530Z,44.42
2022-11-16T19:07:19.864Z,46.40
2022-11-16T19:09:47.987Z,48.58
2022-11-16T19:12:15.868Z,44.53
2022-11-16T19:14:43.747Z,47.92
2022-11-16T19:17:11.549Z,46.60
2022-11-16T19:19:40.820Z,42.90
2022-11-16T19:22:08.908Z,41.05
2022-11-16T19:24:37.481Z,44.80
2022-11-16T19:27:05.402Z,50.40
2022-11-16T19:29:33.314Z,76.18
2022-11-16T19:32:01.117Z,96.03
2022-11-16T19:34:33.322Z,142.55
2022-11-16T19:37:01.481Z,135.30
2022-11-16T19:39:29.395Z,134.15
2022-11-16T19:41:57.260Z,105.25
2022-11-16T19:44:25.174Z,100.65
2022-11-16T19:46:54.716Z,136.38
2022-11-16T19:49:22.711Z,74.95
2022-11-16T19:51:50.571Z,66.32
2022-11-16T19:54:19.816Z,68.95
2022-11-16T19:56:54.673Z,64.63
2022-11-16T19:59:23.065Z,51.13
2022-11-16T20:01:51.118Z,53.20
2022-11-16T20:04:19.104Z,44.03
2022-11-16T20:06:47.566Z,25.23
2022-11-16T20:09:15.720Z,27.27
2022-11-16T20:11:45.965Z,36.63
2022-11-16T20:14:15.151Z,26.48
2022-11-16T20:16:46.670Z,34.40
2022-11-16T20:19:15.339Z,36.55
2022-11-16T20:21:43.360Z,37.88
2022-11-16T20:24:12.911Z,50.88
2022-11-16T20:26:42.691Z,46.33
2022-11-16T20:29:12.507Z,77.43
2022-11-16T20:31:43.049Z,67.15
2022-11-16T20:34:15.727Z,74.97
2022-11-16T20:36:47.323Z,73.95
2022-11-16T20:39:16.338Z,81.65
2022-11-16T20:41:44.960Z,88.63
2022-11-16T20:44:16.640Z,71.00
2022-11-16T20:46:45.370Z,71.70
2022-11-16T20:49:13.434Z,66.00
2022-11-16T20:51:42.135Z,72.57
2022-11-16T20:54:10.336Z,98.25
2022-11-16T20:56:38.180Z,120.82
2022-11-16T20:59:06.184Z,118.30
2022-11-16T21:01:34.094Z,97.05
2022-11-16T21:04:04.126Z,93.78
2022-11-16T21:06:32.853Z,86.10
2022-11-16T21:09:00.919Z,95.22
2022-11-16T21:11:30.240Z,124.93
2022-11-16T21:14:16.605Z,125.93
2022-11-16T21:16:44.625Z,118.38
2022-11-16T21:19:12.784Z,120.47
2022-11-16T21:21:41.477Z,121.82
2022-11-16T21:24:09.670Z,132.95
2022-11-16T21:26:37.695Z,151.30
2022-11-16T21:29:05.733Z,154.32
2022-11-16T21:31:34.978Z,155.43
2022-11-16T21:34:02.808Z,135.38
2022-11-16T21:36:31.449Z,137.80
2022-11-16T21:38:59.595Z,122.55
2022-11-16T21:43:58.377Z,119.70
2022-11-16T21:46:26.599Z,102.28
2022-11-16T21:48:56.745Z,105.10
2022-11-16T21:51:44.069Z,102.20
2022-11-16T21:54:11.815Z,78.40
2022-11-16T21:56:40.780Z,84.75
2022-11-16T21:59:08.460Z,79.80
2022-11-16T22:01:59.497Z,61.80
2022-11-16T22:04:47.130Z,60.00
2022-11-16T22:07:34.154Z,63.40
2022-11-16T22:10:03.039Z,64.45
2022-11-16T22:12:30.832Z,58.78
2022-11-16T22:14:58.927Z,59.65
2022-11-16T22:17:28.885Z,73.55
2022-11-16T22:20:00.462Z,63.28
2022-11-16T22:22:28.303Z,65.68
2022-11-16T22:24:56.373Z,47.22
2022-11-16T22:27:24.399Z,37.67
2022-11-16T22:29:52.604Z,35.70
2022-11-16T22:32:20.258Z,33.63
2022-11-16T22:34:48.417Z,34.42
2022-11-16T22:37:16.177Z,39.78
2022-11-16T22:39:44.409Z,32.58
2022-11-16T22:42:12.207Z,41.03
2022-11-16T22:44:40.474Z,36.38
2022-11-16T22:47:09.622Z,40.53
2022-11-16T22:49:37.626Z,37.60
2022-11-16T22:52:05.597Z,34.60
2022-11-16T22:54:37.974Z,39.22
2022-11-16T22:57:30.494Z,40.85
2022-11-16T22:59:58.264Z,38.85
2022-11-16T23:02:26.298Z,37.53
2022-11-16T23:04:54.106Z,42.83
